sensor_id;sensor_type;location;lat;lon;timestamp;pressure;altitude;pressure_sealevel;temperature;humidity
64844;BME280;51310;52.198;5.422;2023-04-09T00:02:09;102439.13;;;7.59;100.00
64844;BME280;51310;52.198;5.422;2023-04-09T00:04:35;102443.25;;;7.65;100.00
64844;BME280;51310;52.198;5.422;2023-04-09T00:07:01;102443.53;;;7.73;100.00
64844;BME280;51310;52.198;5.422;2023-04-09T00:09:27;102442.22;;;7.70;100.00
64844;BME280;51310;52.198;5.422;2023-04-09T00:11:52;102441.28;;;7.69;100.00
64844;BME280;51310;52.198;5.422;2023-04-09T00:14:18;102440.84;;;7.66;100.00
64844;BME280;51310;52.198;5.422;2023-04-09T00:16:44;102443.63;;;7.68;100.00
64844;BME280;51310;52.198;5.422;2023-04-09T00:19:09;102445.38;;;7.74;100.00
64844;BME280;51310;52.198;5.422;2023-04-09T00:21:36;102441.91;;;7.74;100.00
64844;BME280;51310;52.198;5.422;2023-04-09T00:24:02;102438.00;;;7.70;100.00
64844;BME280;51310;52.198;5.422;2023-04-09T00:26:28;102432.16;;;7.71;100.00
64844;BME280;51310;52.198;5.422;2023-04-09T00:28:53;102432.88;;;7.70;100.00
64844;BME280;51310;52.198;5.422;2023-04-09T00:31:19;102423.84;;;7.79;100.00
64844;BME280;51310;52.198;5.422;2023-04-09T00:33:45;102428.66;;;7.71;100.00
64844;BME280;51310;52.198;5.422;2023-04-09T00:36:11;102422.09;;;7.73;100.00
64844;BME280;51310;52.198;5.422;2023-04-09T00:38:36;102427.03;;;7.71;100.00
64844;BME280;51310;52.198;5.422;2023-04-09T00:41:02;102419.44;;;7.66;100.00
64844;BME280;51310;52.198;5.422;2023-04-09T00:43:28;102425.41;;;7.72;100.00
64844;BME280;51310;52.198;5.422;2023-04-09T00:45:54;102421.41;;;7.74;100.00
64844;BME280;51310;52.198;5.422;2023-04-09T00:48:20;102416.47;;;7.75;100.00
64844;BME280;51310;52.198;5.422;2023-04-09T00:50:46;102419.53;;;7.73;100.00
64844;BME280;51310;52.198;5.422;2023-04-09T00:53:13;102418.00;;;7.80;100.00
64844;BME280;51310;52.198;5.422;2023-04-09T00:55:40;102419.06;;;7.75;100.00
64844;BME280;51310;52.198;5.422;2023-04-09T00:58:06;102416.97;;;7.73;100.00
64844;BME280;51310;52.198;5.422;2023-04-09T01:00:32;102415.44;;;7.68;100.00
64844;BME280;51310;52.198;5.422;2023-04-09T01:02:58;102416.97;;;7.60;100.00
64844;BME280;51310;52.198;5.422;2023-04-09T01:05:43;102407.75;;;7.55;100.00
64844;BME280;51310;52.198;5.422;2023-04-09T01:11:36;102408.69;;;7.55;100.00
64844;BME280;51310;52.198;5.422;2023-04-09T01:14:41;102403.84;;;7.51;100.00
64844;BME280;51310;52.198;5.422;2023-04-09T01:17:25;102407.06;;;7.56;100.00
64844;BME280;51310;52.198;5.422;2023-04-09T01:20:17;102408.69;;;7.55;100.00
64844;BME280;51310;52.198;5.422;2023-04-09T01:30:51;102395.47;;;7.52;100.00
64844;BME280;51310;52.198;5.422;2023-04-09T01:33:19;102393.13;;;7.54;100.00
64844;BME280;51310;52.198;5.422;2023-04-09T01:35:47;102405.00;;;7.53;100.00
64844;BME280;51310;52.198;5.422;2023-04-09T01:38:15;102398.56;;;7.50;100.00
64844;BME280;51310;52.198;5.422;2023-04-09T01:40:42;102394.56;;;7.52;100.00
64844;BME280;51310;52.198;5.422;2023-04-09T01:43:10;102393.22;;;7.48;100.00
64844;BME280;51310;52.198;5.422;2023-04-09T01:45:37;102387.34;;;7.49;100.00
64844;BME280;51310;52.198;5.422;2023-04-09T01:48:04;102396.16;;;7.51;100.00
64844;BME280;51310;52.198;5.422;2023-04-09T01:50:31;102395.47;;;7.52;100.00
64844;BME280;51310;52.198;5.422;2023-04-09T01:52:59;102391.56;;;7.49;100.00
64844;BME280;51310;52.198;5.422;2023-04-09T01:55:26;102387.56;;;7.51;100.00
64844;BME280;51310;52.198;5.422;2023-04-09T01:57:52;102385.53;;;7.48;100.00
64844;BME280;51310;52.198;5.422;2023-04-09T02:00:18;102382.66;;;7.52;100.00
64844;BME280;51310;52.198;5.422;2023-04-09T02:03:23;102387.06;;;7.53;100.00
64844;BME280;51310;52.198;5.422;2023-04-09T02:06:16;102384.19;;;7.45;100.00
64844;BME280;51310;52.198;5.422;2023-04-09T02:08:46;102387.78;;;7.52;100.00
64844;BME280;51310;52.198;5.422;2023-04-09T02:11:14;102386.88;;;7.52;100.00
64844;BME280;51310;52.198;5.422;2023-04-09T02:13:41;102385.53;;;7.48;100.00
64844;BME280;51310;52.198;5.422;2023-04-09T02:16:12;102383.88;;;7.49;100.00
64844;BME280;51310;52.198;5.422;2023-04-09T02:18:40;102381.75;;;7.52;100.00
64844;BME280;51310;52.198;5.422;2023-04-09T02:21:06;102384.00;;;7.56;100.00
64844;BME280;51310;52.198;5.422;2023-04-09T02:23:32;102385.84;;;7.57;100.00
64844;BME280;51310;52.198;5.422;2023-04-09T02:25:58;102372.81;;;7.55;100.00
64844;BME280;51310;52.198;5.422;2023-04-09T02:28:24;102368.41;;;7.54;100.00
64844;BME280;51310;52.198;5.422;2023-04-09T02:30:49;102368.00;;;7.51;100.00
64844;BME280;51310;52.198;5.422;2023-04-09T02:33:15;102361.75;;;7.49;100.00
64844;BME280;51310;52.198;5.422;2023-04-09T02:35:41;102364.50;;;7.51;100.00
64844;BME280;51310;52.198;5.422;2023-04-09T02:38:08;102371.50;;;7.52;100.00
64844;BME280;51310;52.198;5.422;2023-04-09T02:40:39;102373.31;;;7.53;100.00
64844;BME280;51310;52.198;5.422;2023-04-09T02:43:06;102367.28;;;7.52;100.00
64844;BME280;51310;52.198;5.422;2023-04-09T02:45:32;102363.38;;;7.49;100.00
64844;BME280;51310;52.198;5.422;2023-04-09T02:47:57;102367.28;;;7.52;100.00
64844;BME280;51310;52.198;5.422;2023-04-09T02:50:23;102364.94;;;7.54;100.00
64844;BME280;51310;52.198;5.422;2023-04-09T02:52:49;102361.94;;;7.51;100.00
64844;BME280;51310;52.198;5.422;2023-04-09T02:55:15;102363.38;;;7.49;100.00
64844;BME280;51310;52.198;5.422;2023-04-09T02:57:41;102362.16;;;7.52;100.00
64844;BME280;51310;52.198;5.422;2023-04-09T03:00:07;102364.00;;;7.53;100.00
64844;BME280;51310;52.198;5.422;2023-04-09T03:02:33;102362.03;;;7.58;100.00
64844;BME280;51310;52.198;5.422;2023-04-09T03:04:59;102350.28;;;7.53;100.00
64844;BME280;51310;52.198;5.422;2023-04-09T03:07:25;102360.00;;;7.55;100.00
64844;BME280;51310;52.198;5.422;2023-04-09T03:09:50;102352.84;;;7.53;100.00
64844;BME280;51310;52.198;5.422;2023-04-09T03:12:16;102358.69;;;7.52;100.00
64844;BME280;51310;52.198;5.422;2023-04-09T03:14:42;102357.66;;;7.57;100.00
64844;BME280;51310;52.198;5.422;2023-04-09T03:17:07;102357.72;;;7.64;100.00
64844;BME280;51310;52.198;5.422;2023-04-09T03:19:33;102359.69;;;7.59;100.00
64844;BME280;51310;52.198;5.422;2023-04-09T03:21:59;102358.56;;;7.57;100.00
64844;BME280;51310;52.198;5.422;2023-04-09T03:24:24;102354.78;;;7.61;100.00
64844;BME280;51310;52.198;5.422;2023-04-09T03:26:50;102346.78;;;7.65;100.00
64844;BME280;51310;52.198;5.422;2023-04-09T03:29:16;102354.56;;;7.59;100.00
64844;BME280;51310;52.198;5.422;2023-04-09T03:31:41;102346.25;;;7.68;100.00
64844;BME280;51310;52.198;5.422;2023-04-09T03:34:07;102350.03;;;7.64;100.00
64844;BME280;51310;52.198;5.422;2023-04-09T03:36:33;102338.56;;;7.68;100.00
64844;BME280;51310;52.198;5.422;2023-04-09T03:38:58;102335.63;;;7.65;100.00
64844;BME280;51310;52.198;5.422;2023-04-09T03:41:26;102342.34;;;7.64;100.00
64844;BME280;51310;52.198;5.422;2023-04-09T03:43:52;102333.22;;;7.66;100.00
64844;BME280;51310;52.198;5.422;2023-04-09T03:46:18;102335.28;;;7.69;100.00
64844;BME280;51310;52.198;5.422;2023-04-09T03:48:44;102326.97;;;7.64;100.00
64844;BME280;51310;52.198;5.422;2023-04-09T03:51:14;102334.06;;;7.59;100.00
64844;BME280;51310;52.198;5.422;2023-04-09T03:53:41;102331.28;;;7.58;100.00
64844;BME280;51310;52.198;5.422;2023-04-09T03:56:07;102322.69;;;7.57;100.00
64844;BME280;51310;52.198;5.422;2023-04-09T03:58:33;102336.25;;;7.56;100.00
64844;BME280;51310;52.198;5.422;2023-04-09T04:00:59;102330.38;;;7.57;100.00
64844;BME280;51310;52.198;5.422;2023-04-09T04:03:25;102324.94;;;7.62;100.00
64844;BME280;51310;52.198;5.422;2023-04-09T04:05:51;102323.59;;;7.58;100.00
64844;BME280;51310;52.198;5.422;2023-04-09T04:08:17;102335.72;;;7.59;100.00
64844;BME280;51310;52.198;5.422;2023-04-09T04:10:42;102337.53;;;7.60;100.00
64844;BME280;51310;52.198;5.422;2023-04-09T04:13:08;102325.47;;;7.59;100.00
64844;BME280;51310;52.198;5.422;2023-04-09T04:15:41;102332.03;;;7.57;100.00
64844;BME280;51310;52.198;5.422;2023-04-09T04:18:08;102328.09;;;7.66;100.00
64844;BME280;51310;52.198;5.422;2023-04-09T04:20:36;102324.25;;;7.63;100.00
64844;BME280;51310;52.198;5.422;2023-04-09T04:23:02;102321.47;;;7.61;100.00
64844;BME280;51310;52.198;5.422;2023-04-09T04:25:28;102318.31;;;7.56;100.00
64844;BME280;51310;52.198;5.422;2023-04-09T04:27:54;102321.38;;;7.54;100.00
64844;BME280;51310;52.198;5.422;2023-04-09T04:30:20;102323.13;;;7.48;100.00
64844;BME280;51310;52.198;5.422;2023-04-09T04:32:47;102313.50;;;7.52;100.00
64844;BME280;51310;52.198;5.422;2023-04-09T04:35:13;102314.00;;;7.50;100.00
64844;BME280;51310;52.198;5.422;2023-04-09T04:37:39;102317.56;;;7.57;100.00
64844;BME280;51310;52.198;5.422;2023-04-09T04:40:07;102323.31;;;7.49;100.00
64844;BME280;51310;52.198;5.422;2023-04-09T04:42:33;102326.81;;;7.50;100.00
64844;BME280;51310;52.198;5.422;2023-04-09T04:44:59;102325.88;;;7.49;100.00
64844;BME280;51310;52.198;5.422;2023-04-09T04:47:25;102320.75;;;7.49;100.00
64844;BME280;51310;52.198;5.422;2023-04-09T04:49:51;102326.59;;;7.48;100.00
64844;BME280;51310;52.198;5.422;2023-04-09T04:52:17;102319.53;;;7.53;100.00
64844;BME280;51310;52.198;5.422;2023-04-09T04:54:43;102322.81;;;7.52;100.00
64844;BME280;51310;52.198;5.422;2023-04-09T04:57:08;102310.50;;;7.49;100.00
64844;BME280;51310;52.198;5.422;2023-04-09T04:59:39;102321.78;;;7.44;100.00
64844;BME280;51310;52.198;5.422;2023-04-09T05:02:08;102316.16;;;7.47;100.00
64844;BME280;51310;52.198;5.422;2023-04-09T05:04:34;102322.63;;;7.50;100.00
64844;BME280;51310;52.198;5.422;2023-04-09T05:07:00;102320.44;;;7.53;100.00
64844;BME280;51310;52.198;5.422;2023-04-09T05:09:26;102316.56;;;7.50;100.00
64844;BME280;51310;52.198;5.422;2023-04-09T05:11:51;102310.63;;;7.56;100.00
64844;BME280;51310;52.198;5.422;2023-04-09T05:14:17;102312.97;;;7.55;100.00
64844;BME280;51310;52.198;5.422;2023-04-09T05:16:45;102302.03;;;7.56;100.00
64844;BME280;51310;52.198;5.422;2023-04-09T05:19:11;102304.06;;;7.58;100.00
64844;BME280;51310;52.198;5.422;2023-04-09T05:21:37;102305.66;;;7.58;100.00
64844;BME280;51310;52.198;5.422;2023-04-09T05:24:03;102309.72;;;7.56;100.00
64844;BME280;51310;52.198;5.422;2023-04-09T05:26:28;102306.41;;;7.57;100.00
64844;BME280;51310;52.198;5.422;2023-04-09T05:28:54;102317.38;;;7.56;100.00
64844;BME280;51310;52.198;5.422;2023-04-09T05:31:20;102315.91;;;7.58;100.00
64844;BME280;51310;52.198;5.422;2023-04-09T05:33:46;102315.91;;;7.58;100.00
64844;BME280;51310;52.198;5.422;2023-04-09T05:36:17;102319.22;;;7.57;100.00
64844;BME280;51310;52.198;5.422;2023-04-09T05:38:47;102315.53;;;7.55;100.00
64844;BME280;51310;52.198;5.422;2023-04-09T05:41:13;102317.56;;;7.57;100.00
64844;BME280;51310;52.198;5.422;2023-04-09T05:43:38;102318.69;;;7.59;100.00
64844;BME280;51310;52.198;5.422;2023-04-09T05:46:05;102320.88;;;7.56;100.00
64844;BME280;51310;52.198;5.422;2023-04-09T05:48:34;102320.34;;;7.59;100.00
64844;BME280;51310;52.198;5.422;2023-04-09T05:50:59;102333.69;;;7.56;100.00
64844;BME280;51310;52.198;5.422;2023-04-09T05:53:25;102327.28;;;7.60;100.00
64844;BME280;51310;52.198;5.422;2023-04-09T05:55:51;102325.38;;;7.65;100.00
64844;BME280;51310;52.198;5.422;2023-04-09T05:58:17;102323.50;;;7.64;100.00
64844;BME280;51310;52.198;5.422;2023-04-09T06:00:43;102321.69;;;7.63;100.00
64844;BME280;51310;52.198;5.422;2023-04-09T06:03:09;102327.09;;;7.71;100.00
64844;BME280;51310;52.198;5.422;2023-04-09T06:05:35;102327.78;;;7.70;100.00
64844;BME280;51310;52.198;5.422;2023-04-09T06:08:01;102327.78;;;7.70;100.00
64844;BME280;51310;52.198;5.422;2023-04-09T06:10:27;102325.25;;;7.70;100.00
64844;BME280;51310;52.198;5.422;2023-04-09T06:12:52;102324.56;;;7.58;100.00
64844;BME280;51310;52.198;5.422;2023-04-09T06:15:18;102322.06;;;7.66;100.00
64844;BME280;51310;52.198;5.422;2023-04-09T06:17:45;102328.63;;;7.64;100.00
64844;BME280;51310;52.198;5.422;2023-04-09T06:20:10;102330.88;;;7.68;100.00
64844;BME280;51310;52.198;5.422;2023-04-09T06:22:36;102327.94;;;7.65;100.00
64844;BME280;51310;52.198;5.422;2023-04-09T06:25:02;102327.28;;;7.73;100.00
64844;BME280;51310;52.198;5.422;2023-04-09T06:27:28;102331.91;;;7.75;100.00
64844;BME280;51310;52.198;5.422;2023-04-09T06:29:54;102331.78;;;7.81;100.00
64844;BME280;51310;52.198;5.422;2023-04-09T06:32:19;102331.25;;;7.84;100.00
64844;BME280;51310;52.198;5.422;2023-04-09T06:34:45;102327.06;;;7.84;100.00
64844;BME280;51310;52.198;5.422;2023-04-09T06:37:11;102336.28;;;7.89;100.00
64844;BME280;51310;52.198;5.422;2023-04-09T06:39:37;102333.69;;;8.02;100.00
64844;BME280;51310;52.198;5.422;2023-04-09T06:42:02;102331.38;;;8.11;100.00
64844;BME280;51310;52.198;5.422;2023-04-09T06:44:29;102333.03;;;8.10;100.00
64844;BME280;51310;52.198;5.422;2023-04-09T06:46:55;102336.19;;;8.15;100.00
64844;BME280;51310;52.198;5.422;2023-04-09T06:49:21;102351.91;;;8.11;100.00
64844;BME280;51310;52.198;5.422;2023-04-09T06:51:46;102332.63;;;8.07;100.00
64844;BME280;51310;52.198;5.422;2023-04-09T06:54:12;102339.56;;;8.21;100.00
64844;BME280;51310;52.198;5.422;2023-04-09T06:56:38;102337.97;;;8.29;100.00
64844;BME280;51310;52.198;5.422;2023-04-09T06:59:04;102341.66;;;8.31;100.00
64844;BME280;51310;52.198;5.422;2023-04-09T07:01:29;102340.97;;;8.32;100.00
64844;BME280;51310;52.198;5.422;2023-04-09T07:03:56;102344.28;;;8.38;100.00
64844;BME280;51310;52.198;5.422;2023-04-09T07:06:21;102348.34;;;8.36;100.00
64844;BME280;51310;52.198;5.422;2023-04-09T07:08:47;102337.66;;;8.33;100.00
64844;BME280;51310;52.198;5.422;2023-04-09T07:11:13;102347.31;;;8.41;100.00
64844;BME280;51310;52.198;5.422;2023-04-09T07:13:41;102342.16;;;8.41;100.00
64844;BME280;51310;52.198;5.422;2023-04-09T07:16:07;102347.31;;;8.41;100.00
64844;BME280;51310;52.198;5.422;2023-04-09T07:18:33;102356.91;;;8.49;100.00
64844;BME280;51310;52.198;5.422;2023-04-09T07:20:58;102345.31;;;8.46;100.00
64844;BME280;51310;52.198;5.422;2023-04-09T07:23:24;102347.63;;;8.57;100.00
64844;BME280;51310;52.198;5.422;2023-04-09T07:25:50;102348.84;;;8.66;100.00
64844;BME280;51310;52.198;5.422;2023-04-09T07:28:16;102348.72;;;8.79;100.00
64844;BME280;51310;52.198;5.422;2023-04-09T07:30:42;102353.28;;;8.94;100.00
64844;BME280;51310;52.198;5.422;2023-04-09T07:33:08;102350.41;;;9.06;100.00
64844;BME280;51310;52.198;5.422;2023-04-09T07:35:33;102349.44;;;9.25;100.00
64844;BME280;51310;52.198;5.422;2023-04-09T07:37:59;102353.72;;;9.32;100.00
64844;BME280;51310;52.198;5.422;2023-04-09T07:40:25;102353.38;;;9.36;100.00
64844;BME280;51310;52.198;5.422;2023-04-09T07:42:51;102347.72;;;9.45;100.00
64844;BME280;51310;52.198;5.422;2023-04-09T07:45:18;102346.19;;;9.68;100.00
64844;BME280;51310;52.198;5.422;2023-04-09T07:47:44;102345.75;;;9.92;100.00
64844;BME280;51310;52.198;5.422;2023-04-09T07:50:10;102339.28;;;9.88;100.00
64844;BME280;51310;52.198;5.422;2023-04-09T07:52:37;102343.66;;;9.75;100.00
64844;BME280;51310;52.198;5.422;2023-04-09T07:55:03;102358.94;;;9.46;100.00
64844;BME280;51310;52.198;5.422;2023-04-09T07:57:30;102353.94;;;9.40;100.00
64844;BME280;51310;52.198;5.422;2023-04-09T07:59:57;102344.88;;;9.57;100.00
64844;BME280;51310;52.198;5.422;2023-04-09T08:02:23;102343.66;;;9.40;100.00
64844;BME280;51310;52.198;5.422;2023-04-09T08:04:49;102344.75;;;9.35;100.00
64844;BME280;51310;52.198;5.422;2023-04-09T08:07:15;102343.78;;;9.28;100.00
64844;BME280;51310;52.198;5.422;2023-04-09T08:09:40;102342.53;;;9.11;100.00
64844;BME280;51310;52.198;5.422;2023-04-09T08:12:06;102338.53;;;9.40;100.00
64844;BME280;51310;52.198;5.422;2023-04-09T08:14:32;102337.97;;;9.43;100.00
64844;BME280;51310;52.198;5.422;2023-04-09T08:16:59;102341.00;;;9.60;100.00
64844;BME280;51310;52.198;5.422;2023-04-09T08:19:25;102345.09;;;9.73;100.00
64844;BME280;51310;52.198;5.422;2023-04-09T08:21:51;102339.19;;;9.67;100.00
64844;BME280;51310;52.198;5.422;2023-04-09T08:24:17;102338.59;;;9.55;100.00
64844;BME280;51310;52.198;5.422;2023-04-09T08:26:43;102336.94;;;9.48;100.00
64844;BME280;51310;52.198;5.422;2023-04-09T08:29:10;102338.63;;;9.62;100.00
64844;BME280;51310;52.198;5.422;2023-04-09T08:31:38;102337.28;;;9.51;100.00
64844;BME280;51310;52.198;5.422;2023-04-09T08:34:04;102345.56;;;9.56;100.00
64844;BME280;51310;52.198;5.422;2023-04-09T08:36:30;102353.75;;;9.39;100.00
64844;BME280;51310;52.198;5.422;2023-04-09T08:38:57;102353.81;;;9.46;100.00
64844;BME280;51310;52.198;5.422;2023-04-09T08:41:28;102344.00;;;9.71;100.00
64844;BME280;51310;52.198;5.422;2023-04-09T08:43:54;102335.72;;;9.73;100.00
64844;BME280;51310;52.198;5.422;2023-04-09T08:46:22;102334.13;;;9.88;100.00
64844;BME280;51310;52.198;5.422;2023-04-09T08:48:50;102333.63;;;9.98;100.00
64844;BME280;51310;52.198;5.422;2023-04-09T08:51:19;102334.91;;;10.01;100.00
64844;BME280;51310;52.198;5.422;2023-04-09T08:53:48;102336.72;;;10.58;100.00
64844;BME280;51310;52.198;5.422;2023-04-09T08:56:18;102339.44;;;11.03;100.00
64844;BME280;51310;52.198;5.422;2023-04-09T08:58:45;102335.72;;;11.22;100.00
64844;BME280;51310;52.198;5.422;2023-04-09T09:06:29;102326.03;;;10.48;100.00
64844;BME280;51310;52.198;5.422;2023-04-09T09:09:15;102318.88;;;10.74;100.00
64844;BME280;51310;52.198;5.422;2023-04-09T09:11:44;102322.69;;;11.06;100.00
64844;BME280;51310;52.198;5.422;2023-04-09T09:14:17;102319.13;;;11.35;100.00
64844;BME280;51310;52.198;5.422;2023-04-09T09:17:03;102316.09;;;11.60;100.00
64844;BME280;51310;52.198;5.422;2023-04-09T09:19:31;102323.38;;;11.86;100.00
64844;BME280;51310;52.198;5.422;2023-04-09T09:22:05;102321.03;;;11.73;100.00
64844;BME280;51310;52.198;5.422;2023-04-09T09:24:33;102320.84;;;11.72;100.00
64844;BME280;51310;52.198;5.422;2023-04-09T09:27:00;102319.63;;;11.46;100.00
64844;BME280;51310;52.198;5.422;2023-04-09T09:29:27;102313.28;;;11.21;100.00
64844;BME280;51310;52.198;5.422;2023-04-09T09:31:54;102310.47;;;11.41;100.00
64844;BME280;51310;52.198;5.422;2023-04-09T09:34:22;102310.13;;;11.38;100.00
64844;BME280;51310;52.198;5.422;2023-04-09T09:36:48;102310.69;;;11.28;100.00
64844;BME280;51310;52.198;5.422;2023-04-09T09:39:15;102304.59;;;11.35;100.00
64844;BME280;51310;52.198;5.422;2023-04-09T09:41:43;102303.41;;;11.55;100.00
64844;BME280;51310;52.198;5.422;2023-04-09T09:44:11;102303.94;;;11.66;100.00
64844;BME280;51310;52.198;5.422;2023-04-09T09:46:39;102299.81;;;11.76;100.00
64844;BME280;51310;52.198;5.422;2023-04-09T09:49:07;102293.38;;;11.79;100.00
64844;BME280;51310;52.198;5.422;2023-04-09T09:51:38;102302.97;;;11.73;100.00
64844;BME280;51310;52.198;5.422;2023-04-09T09:54:07;102296.47;;;11.84;100.00
64844;BME280;51310;52.198;5.422;2023-04-09T09:56:38;102295.63;;;11.69;100.00
64844;BME280;51310;52.198;5.422;2023-04-09T09:59:17;102291.56;;;11.64;100.00
64844;BME280;51310;52.198;5.422;2023-04-09T10:01:46;102287.63;;;11.82;100.00
64844;BME280;51310;52.198;5.422;2023-04-09T10:04:14;102294.13;;;12.08;100.00
64844;BME280;51310;52.198;5.422;2023-04-09T10:06:44;102290.72;;;12.24;100.00
64844;BME280;51310;52.198;5.422;2023-04-09T10:09:11;102285.47;;;12.38;100.00
64844;BME280;51310;52.198;5.422;2023-04-09T10:11:38;102289.41;;;12.27;100.00
64844;BME280;51310;52.198;5.422;2023-04-09T10:14:07;102286.47;;;12.24;100.00
64844;BME280;51310;52.198;5.422;2023-04-09T10:16:34;102279.66;;;12.25;100.00
64844;BME280;51310;52.198;5.422;2023-04-09T10:19:00;102277.81;;;12.47;100.00
64844;BME280;51310;52.198;5.422;2023-04-09T10:21:46;102279.53;;;12.62;100.00
64844;BME280;51310;52.198;5.422;2023-04-09T10:24:15;102270.88;;;12.62;100.00
64844;BME280;51310;52.198;5.422;2023-04-09T10:26:42;102276.72;;;12.68;100.00
64844;BME280;51310;52.198;5.422;2023-04-09T10:29:15;102262.03;;;12.37;100.00
64844;BME280;51310;52.198;5.422;2023-04-09T10:31:53;102262.84;;;12.05;100.00
64844;BME280;51310;52.198;5.422;2023-04-09T10:34:26;102254.28;;;12.14;100.00
64844;BME280;51310;52.198;5.422;2023-04-09T10:36:56;102257.25;;;12.40;100.00
64844;BME280;51310;52.198;5.422;2023-04-09T10:39:31;102252.19;;;12.25;100.00
64844;BME280;51310;52.198;5.422;2023-04-09T10:42:07;102252.31;;;12.50;100.00
64844;BME280;51310;52.198;5.422;2023-04-09T10:44:33;102249.72;;;12.73;100.00
64844;BME280;51310;52.198;5.422;2023-04-09T10:47:02;102241.31;;;12.83;100.00
64844;BME280;51310;52.198;5.422;2023-04-09T10:49:37;102238.75;;;13.14;100.00
64844;BME280;51310;52.198;5.422;2023-04-09T10:52:08;102239.66;;;13.15;100.00
64844;BME280;51310;52.198;5.422;2023-04-09T10:54:40;102231.81;;;13.06;100.00
64844;BME280;51310;52.198;5.422;2023-04-09T10:59:48;102236.25;;;13.07;100.00
64844;BME280;51310;52.198;5.422;2023-04-09T11:07:50;102224.78;;;13.69;99.37
64844;BME280;51310;52.198;5.422;2023-04-09T11:10:19;102218.88;;;13.70;97.50
64844;BME280;51310;52.198;5.422;2023-04-09T11:12:49;102221.25;;;13.44;90.96
64844;BME280;51310;52.198;5.422;2023-04-09T11:15:18;102216.41;;;13.47;81.55
64844;BME280;51310;52.198;5.422;2023-04-09T11:17:46;102219.34;;;13.34;79.66
64844;BME280;51310;52.198;5.422;2023-04-09T11:20:19;102217.25;;;13.54;80.04
64844;BME280;51310;52.198;5.422;2023-04-09T11:22:46;102219.84;;;13.79;82.38
64844;BME280;51310;52.198;5.422;2023-04-09T11:25:21;102210.13;;;13.85;82.32
64844;BME280;51310;52.198;5.422;2023-04-09T11:27:48;102207.59;;;13.94;80.15
64844;BME280;51310;52.198;5.422;2023-04-09T11:30:14;102209.63;;;14.05;81.34
64844;BME280;51310;52.198;5.422;2023-04-09T11:32:40;102210.59;;;14.14;79.66
64844;BME280;51310;52.198;5.422;2023-04-09T11:35:18;102208.28;;;14.09;76.09
64844;BME280;51310;52.198;5.422;2023-04-09T11:37:45;102205.13;;;13.87;75.48
64844;BME280;51310;52.198;5.422;2023-04-09T11:40:16;102204.16;;;14.02;72.56
64844;BME280;51310;52.198;5.422;2023-04-09T11:42:44;102204.09;;;14.27;72.62
64844;BME280;51310;52.198;5.422;2023-04-09T11:45:11;102209.06;;;14.50;71.13
64844;BME280;51310;52.198;5.422;2023-04-09T11:47:39;102200.75;;;14.61;68.04
64844;BME280;51310;52.198;5.422;2023-04-09T11:50:10;102203.50;;;14.29;67.34
64844;BME280;51310;52.198;5.422;2023-04-09T11:52:36;102205.31;;;14.22;70.01
64844;BME280;51310;52.198;5.422;2023-04-09T11:55:04;102202.63;;;14.38;70.81
64844;BME280;51310;52.198;5.422;2023-04-09T11:57:46;102206.91;;;14.46;69.13
64844;BME280;51310;52.198;5.422;2023-04-09T12:00:16;102205.50;;;14.32;67.69
64844;BME280;51310;52.198;5.422;2023-04-09T12:02:46;102199.16;;;14.46;68.07
64844;BME280;51310;52.198;5.422;2023-04-09T12:05:25;102198.78;;;14.67;67.33
64844;BME280;51310;52.198;5.422;2023-04-09T12:07:58;102194.09;;;14.81;64.40
64844;BME280;51310;52.198;5.422;2023-04-09T12:10:28;102195.78;;;14.89;64.52
64844;BME280;51310;52.198;5.422;2023-04-09T12:12:54;102187.53;;;14.67;63.69
64844;BME280;51310;52.198;5.422;2023-04-09T12:15:23;102192.72;;;14.75;63.99
64844;BME280;51310;52.198;5.422;2023-04-09T12:17:57;102184.47;;;14.62;62.80
64844;BME280;51310;52.198;5.422;2023-04-09T12:20:34;102184.16;;;14.76;64.78
64844;BME280;51310;52.198;5.422;2023-04-09T12:23:03;102183.44;;;14.86;63.46
64844;BME280;51310;52.198;5.422;2023-04-09T12:25:32;102185.88;;;14.85;63.19
64844;BME280;51310;52.198;5.422;2023-04-09T12:28:00;102184.34;;;14.95;64.56
64844;BME280;51310;52.198;5.422;2023-04-09T12:30:26;102185.72;;;15.01;61.29
64844;BME280;51310;52.198;5.422;2023-04-09T12:32:53;102184.66;;;15.07;60.45
64844;BME280;51310;52.198;5.422;2023-04-09T12:35:20;102185.25;;;14.96;59.91
64844;BME280;51310;52.198;5.422;2023-04-09T12:37:47;102181.88;;;14.62;63.09
64844;BME280;51310;52.198;5.422;2023-04-09T12:40:13;102186.19;;;14.46;62.08
64844;BME280;51310;52.198;5.422;2023-04-09T12:42:40;102190.53;;;14.29;64.14
64844;BME280;51310;52.198;5.422;2023-04-09T12:45:09;102189.69;;;14.46;63.86
64844;BME280;51310;52.198;5.422;2023-04-09T12:47:35;102179.13;;;14.36;61.01
64844;BME280;51310;52.198;5.422;2023-04-09T12:50:06;102181.63;;;14.43;61.58
64844;BME280;51310;52.198;5.422;2023-04-09T12:52:33;102187.91;;;14.54;63.07
64844;BME280;51310;52.198;5.422;2023-04-09T12:55:00;102180.28;;;14.13;65.41
64844;BME280;51310;52.198;5.422;2023-04-09T12:57:26;102185.91;;;14.09;67.39
64844;BME280;51310;52.198;5.422;2023-04-09T12:59:53;102183.00;;;14.06;64.86
64844;BME280;51310;52.198;5.422;2023-04-09T13:02:19;102171.22;;;14.26;64.26
64844;BME280;51310;52.198;5.422;2023-04-09T13:04:47;102178.09;;;14.01;64.08
64844;BME280;51310;52.198;5.422;2023-04-09T13:07:14;102166.91;;;14.18;63.58
64844;BME280;51310;52.198;5.422;2023-04-09T13:09:46;102181.03;;;14.54;62.16
64844;BME280;51310;52.198;5.422;2023-04-09T13:12:15;102175.31;;;14.74;59.28
64844;BME280;51310;52.198;5.422;2023-04-09T13:14:45;102165.31;;;14.95;59.17
64844;BME280;51310;52.198;5.422;2023-04-09T13:17:11;102169.06;;;14.81;56.55